Huvudsida
METAR-TAF:

METAR-TAF

Flygplatser :

Valladolid Airport

Valladolid, Spanien

latitud: 41-43N, longitud: 004-51W, höjd: 849 m

Aktuellt väderrapport

Denna rapport gjordes för 30 minuter sedan, klockan 06:00 UTC
Vind 4 kt från ost, varierande mellan nordost och ost/sydost
Temperatur 18°C
Fuktighet 73%
Tryck 1023 hPa
Sikt 10 km eller mer
Inga moln under 1 500 m eller inga cumulonimbus

METAR: LEVD 230600Z 08004KT 040V110 CAVOK 18/13 Q1023 NOSIG

Tid: 08:30 (06:30 UTC)

Väderprognos

Denna rapport gjordes för 4 timmar och 30 minuter sedan, klockan 02:00 UTC
Prognos gäller från 23 kl. 03 UTC till 24 kl. 03 UTC
Vind 10 kt från ost/nordost
Sikt 10 km eller mer
Inga moln under 1 500 m eller inga cumulonimbus
Blir
från 23 kl. 12 UTC till 23 kl. 14 UTC
Vind 4 kt varierande vindriktning
Blir
från 23 kl. 20 UTC till 23 kl. 22 UTC
Vind 10 kt från ost/nordost

TAF: LEVD 230200Z 2303/2403 06010KT CAVOK TX34/2315Z TN16/2304Z BECMG 2312/2314 VRB04KT BECMG 2320/2322 06010KT

Aktuella väderrapporter och prognoser från 4000 flygplatser (METAR- och TAF-rapporter).

De tillgängliga stationerna syns som gula och röda prickar på kartan.

För musen över prickarna för att se namnen på stationerna.

Klicka sedan för att få väderrapporter och prognoser.

För att ändra kartan: Klicka på de gröna knapparna med ett svart kors på för att zooma in; den gröna knappen med ett streck på för att zooma ut; eller på de gröna pilarna för angränsande kartor.


METAR-TAF: